createdAt,value
2023-03-12T00:01:45.040Z,33.97
2023-03-12T00:04:16.260Z,33.80
2023-03-12T00:06:46.728Z,34.88
2023-03-12T00:09:17.111Z,33.80
2023-03-12T00:11:47.603Z,35.10
2023-03-12T00:14:18.079Z,34.65
2023-03-12T00:16:48.548Z,34.67
2023-03-12T00:19:21.401Z,34.20
2023-03-12T00:22:02.096Z,35.83
2023-03-12T00:24:35.463Z,36.40
2023-03-12T00:27:10.372Z,36.22
2023-03-12T00:29:41.965Z,42.65
2023-03-12T00:32:15.088Z,39.80
2023-03-12T00:34:45.372Z,40.05
2023-03-12T00:37:16.775Z,35.92
2023-03-12T00:39:47.044Z,37.50
2023-03-12T00:42:18.039Z,35.63
2023-03-12T00:44:48.436Z,36.35
2023-03-12T00:47:20.546Z,36.40
2023-03-12T00:49:51.709Z,34.10
2023-03-12T00:52:24.487Z,33.58
2023-03-12T00:54:55.029Z,35.53
2023-03-12T00:57:25.437Z,33.60
2023-03-12T00:59:57.652Z,35.15
2023-03-12T01:02:29.978Z,34.08
2023-03-12T01:05:00.236Z,34.95
2023-03-12T01:07:32.410Z,35.30
2023-03-12T01:10:02.929Z,33.15
2023-03-12T01:12:33.843Z,36.05
2023-03-12T01:15:04.564Z,35.60
2023-03-12T01:17:35.202Z,35.75
2023-03-12T01:20:07.329Z,35.53
2023-03-12T01:22:38.758Z,36.60
2023-03-12T01:27:40.759Z,34.28
2023-03-12T01:30:11.901Z,35.17
2023-03-12T01:32:42.268Z,36.33
2023-03-12T01:35:16.032Z,35.75
2023-03-12T01:37:46.268Z,36.60
2023-03-12T01:40:23.371Z,35.38
2023-03-12T01:43:02.773Z,36.60
2023-03-12T01:46:10.534Z,36.45
2023-03-12T01:48:48.400Z,37.47
2023-03-12T01:51:21.787Z,36.63
2023-03-12T01:53:58.648Z,36.88
2023-03-12T01:56:33.143Z,36.08
2023-03-12T01:59:08.933Z,34.42
2023-03-12T02:01:44.295Z,36.28
2023-03-12T02:04:18.786Z,34.78
2023-03-12T02:07:00.438Z,36.67
2023-03-12T02:09:32.295Z,38.65
2023-03-12T02:12:05.976Z,35.95
2023-03-12T02:14:37.149Z,35.88
2023-03-12T02:17:08.730Z,37.42
2023-03-12T02:19:54.031Z,38.40
2023-03-12T02:22:24.863Z,40.08
2023-03-12T02:25:17.636Z,36.13
2023-03-12T02:27:49.006Z,37.05
2023-03-12T02:32:51.237Z,35.03
2023-03-12T02:35:21.561Z,37.13
2023-03-12T02:37:57.618Z,40.15
2023-03-12T02:40:27.757Z,38.70
2023-03-12T02:42:59.164Z,39.42
2023-03-12T02:45:32.119Z,38.97
2023-03-12T02:48:07.761Z,36.00
2023-03-12T02:50:38.366Z,37.72
2023-03-12T02:53:08.635Z,35.87
2023-03-12T02:55:38.950Z,40.45
2023-03-12T02:58:09.525Z,39.87
2023-03-12T03:00:40.285Z,38.67
2023-03-12T03:03:10.731Z,38.75
2023-03-12T03:05:41.162Z,39.65
2023-03-12T03:08:12.294Z,39.65
2023-03-12T03:10:48.692Z,41.45
2023-03-12T03:13:19.422Z,38.90
2023-03-12T03:15:51.967Z,39.53
2023-03-12T03:18:22.207Z,38.92
2023-03-12T03:21:11.210Z,44.08
2023-03-12T03:23:42.928Z,42.28
2023-03-12T03:26:13.911Z,43.58
2023-03-12T03:31:12.118Z,42.00
2023-03-12T03:33:44.152Z,42.60
2023-03-12T03:36:19.153Z,42.55
2023-03-12T03:39:04.799Z,41.78
2023-03-12T03:41:37.815Z,41.00
2023-03-12T03:44:10.114Z,41.55
2023-03-12T03:46:44.787Z,44.42
2023-03-12T03:49:19.534Z,45.03
2023-03-12T03:51:54.544Z,47.13
2023-03-12T03:54:34.267Z,43.47
2023-03-12T03:57:05.734Z,44.75
2023-03-12T03:59:36.034Z,45.60
2023-03-12T04:02:09.230Z,44.30
2023-03-12T04:04:44.369Z,46.22
2023-03-12T04:07:18.085Z,45.58
2023-03-12T04:09:50.094Z,45.75
2023-03-12T04:12:20.613Z,45.90
2023-03-12T04:14:53.997Z,45.40
2023-03-12T04:17:25.012Z,50.22
2023-03-12T04:19:55.521Z,47.80
2023-03-12T04:22:25.965Z,49.10
2023-03-12T04:24:56.324Z,48.25
2023-03-12T04:27:27.469Z,49.17
2023-03-12T04:29:59.742Z,48.50
2023-03-12T04:32:30.231Z,47.67
2023-03-12T04:35:02.073Z,49.42
2023-03-12T04:37:39.307Z,50.05
2023-03-12T04:40:14.921Z,49.42
2023-03-12T04:42:45.366Z,49.35
2023-03-12T04:45:20.129Z,50.77
2023-03-12T04:47:50.839Z,50.35
2023-03-12T04:50:21.452Z,52.83
2023-03-12T04:52:54.288Z,49.13
2023-03-12T04:55:29.111Z,50.97
2023-03-12T04:57:59.501Z,50.92
2023-03-12T05:00:29.863Z,51.15
2023-03-12T05:03:00.356Z,50.83
2023-03-12T05:05:30.751Z,50.70
2023-03-12T05:08:04.470Z,51.87
2023-03-12T05:10:36.771Z,51.10
2023-03-12T05:13:10.376Z,50.67
2023-03-12T05:15:40.785Z,50.17
2023-03-12T05:18:13.271Z,50.35
2023-03-12T05:20:46.001Z,47.65
2023-03-12T05:23:16.521Z,47.78
2023-03-12T05:25:49.054Z,48.80
2023-03-12T05:28:23.164Z,47.20
2023-03-12T05:30:55.279Z,48.17
2023-03-12T05:33:30.937Z,47.88
2023-03-12T05:36:06.647Z,46.55
2023-03-12T05:38:37.881Z,48.83
2023-03-12T05:41:10.892Z,48.10
2023-03-12T05:43:43.222Z,49.40
2023-03-12T05:46:14.057Z,50.83
2023-03-12T05:48:46.732Z,49.47
2023-03-12T05:51:19.179Z,50.72
2023-03-12T05:56:45.725Z,51.40
2023-03-12T05:59:17.413Z,50.10
2023-03-12T06:02:02.197Z,51.83
2023-03-12T06:04:34.319Z,50.92
2023-03-12T06:07:04.529Z,51.00
2023-03-12T06:09:37.861Z,49.45
2023-03-12T06:12:09.100Z,51.38
2023-03-12T06:14:39.921Z,48.33
2023-03-12T06:17:10.457Z,49.63
2023-03-12T06:19:42.890Z,52.00
2023-03-12T06:22:13.187Z,50.75
2023-03-12T06:24:45.443Z,51.70
2023-03-12T06:27:27.992Z,50.50
2023-03-12T06:29:58.201Z,52.38
2023-03-12T06:32:28.510Z,51.55
2023-03-12T06:35:01.347Z,50.67
2023-03-12T06:37:32.820Z,54.97
2023-03-12T06:40:03.249Z,50.30
2023-03-12T06:42:39.785Z,50.27
2023-03-12T06:45:15.411Z,52.88
2023-03-12T06:47:49.298Z,50.80
2023-03-12T06:50:21.839Z,49.30
2023-03-12T06:52:52.038Z,53.05
2023-03-12T06:55:25.420Z,48.42
2023-03-12T06:57:55.609Z,51.65
2023-03-12T07:00:31.302Z,52.17
2023-03-12T07:03:01.639Z,51.05
2023-03-12T07:05:32.252Z,53.00
2023-03-12T07:08:03.901Z,53.53
2023-03-12T07:10:39.546Z,51.60
2023-03-12T07:13:16.336Z,51.08
2023-03-12T07:18:46.413Z,52.70
2023-03-12T07:21:19.029Z,51.85
2023-03-12T07:23:52.427Z,52.25
2023-03-12T07:26:26.138Z,51.03
2023-03-12T07:28:59.505Z,54.25
2023-03-12T07:31:32.061Z,51.83
2023-03-12T07:34:02.820Z,55.78
2023-03-12T07:36:34.673Z,55.60
2023-03-12T07:39:05.095Z,56.25
2023-03-12T07:41:35.449Z,55.00
2023-03-12T07:44:05.737Z,55.38
2023-03-12T07:46:37.930Z,55.10
2023-03-12T07:49:11.266Z,56.15
2023-03-12T07:51:41.555Z,56.28
2023-03-12T07:54:14.312Z,53.25
2023-03-12T07:56:45.037Z,55.35
2023-03-12T07:59:15.567Z,55.97
2023-03-12T08:01:46.488Z,57.67
2023-03-12T08:04:17.610Z,55.38
2023-03-12T08:06:48.095Z,53.63
2023-03-12T08:09:21.676Z,55.07
2023-03-12T08:12:01.370Z,54.33
2023-03-12T08:14:33.992Z,54.65
2023-03-12T08:17:04.543Z,56.55
2023-03-12T08:19:37.939Z,54.92
2023-03-12T08:22:09.331Z,55.45
2023-03-12T08:24:41.214Z,55.30
2023-03-12T08:27:13.346Z,54.42
2023-03-12T08:29:46.343Z,53.90
2023-03-12T08:32:18.765Z,55.33
2023-03-12T08:34:49.222Z,56.72
2023-03-12T08:37:23.229Z,55.93
2023-03-12T08:39:53.487Z,56.25
2023-03-12T08:42:26.930Z,57.13
2023-03-12T08:45:00.040Z,57.00
2023-03-12T08:47:31.638Z,58.67
2023-03-12T08:50:02.258Z,56.65
2023-03-12T08:52:34.367Z,54.92
2023-03-12T08:55:06.458Z,57.13
2023-03-12T08:57:36.991Z,56.35
2023-03-12T09:00:13.419Z,57.40
2023-03-12T09:02:46.836Z,55.00
2023-03-12T09:05:17.236Z,56.00
2023-03-12T09:07:47.778Z,55.78
2023-03-12T09:10:20.113Z,54.83
2023-03-12T09:12:50.297Z,55.45
2023-03-12T09:15:21.155Z,54.83
2023-03-12T09:17:51.460Z,55.97
2023-03-12T09:20:22.232Z,55.43
2023-03-12T09:22:57.408Z,56.25
2023-03-12T09:25:28.012Z,55.80
2023-03-12T09:28:00.028Z,54.88
2023-03-12T09:30:32.581Z,56.78
2023-03-12T09:33:07.571Z,58.55
2023-03-12T09:35:41.559Z,58.60
2023-03-12T09:38:21.574Z,58.53
2023-03-12T09:40:52.089Z,59.42
2023-03-12T09:43:34.771Z,56.30
2023-03-12T09:46:06.882Z,60.78
2023-03-12T09:48:47.529Z,56.78
2023-03-12T09:51:24.700Z,59.35
2023-03-12T09:54:02.426Z,56.42
2023-03-12T09:56:38.961Z,57.20
2023-03-12T09:59:15.254Z,57.95
2023-03-12T10:01:54.962Z,58.03
2023-03-12T10:04:59.912Z,53.15
2023-03-12T10:07:50.309Z,54.25
2023-03-12T10:10:42.640Z,52.13
2023-03-12T10:13:49.926Z,53.35
2023-03-12T10:16:43.520Z,51.45
2023-03-12T10:19:43.003Z,53.60
2023-03-12T10:23:09.177Z,50.33
2023-03-12T10:26:11.182Z,52.58
2023-03-12T10:29:02.241Z,53.05
2023-03-12T10:31:51.465Z,52.10
2023-03-12T10:34:28.865Z,52.00
2023-03-12T10:37:05.615Z,50.67
2023-03-12T10:39:35.921Z,48.03
2023-03-12T10:42:25.633Z,50.22
2023-03-12T10:45:39.097Z,46.70
2023-03-12T10:48:12.286Z,46.03
2023-03-12T10:50:43.938Z,44.35
2023-03-12T10:53:24.681Z,44.25
2023-03-12T10:56:14.178Z,43.13
2023-03-12T10:58:49.108Z,45.83
2023-03-12T11:01:22.767Z,42.63
2023-03-12T11:03:54.267Z,41.65
2023-03-12T11:06:28.513Z,42.30
2023-03-12T11:09:16.673Z,40.90
2023-03-12T11:11:51.951Z,39.92
2023-03-12T11:14:26.869Z,40.22
2023-03-12T11:16:58.185Z,39.75
2023-03-12T11:19:34.651Z,41.40
2023-03-12T11:22:10.071Z,41.97
2023-03-12T11:24:58.750Z,39.70
2023-03-12T11:27:43.751Z,40.30
2023-03-12T11:30:22.758Z,39.38
2023-03-12T11:32:53.801Z,39.85
2023-03-12T11:38:09.875Z,38.78
2023-03-12T11:41:07.791Z,37.20
2023-03-12T11:43:49.533Z,38.50
2023-03-12T11:46:19.580Z,37.45
2023-03-12T11:49:02.183Z,38.13
2023-03-12T11:51:38.701Z,38.88
2023-03-12T11:54:30.446Z,37.63
2023-03-12T11:57:25.140Z,36.78
2023-03-12T12:00:25.084Z,37.72
2023-03-12T12:03:19.268Z,36.42
2023-03-12T12:05:59.951Z,36.78
2023-03-12T12:08:50.171Z,37.60
2023-03-12T12:11:30.246Z,35.90
2023-03-12T12:14:09.145Z,36.13
2023-03-12T12:17:00.366Z,37.00
2023-03-12T12:19:55.808Z,36.15
2023-03-12T12:22:41.920Z,38.08
2023-03-12T12:25:26.299Z,35.63
2023-03-12T12:28:20.560Z,37.58
2023-03-12T12:31:07.737Z,35.78
2023-03-12T12:34:19.440Z,36.28
2023-03-12T12:39:40.433Z,37.38
2023-03-12T12:42:17.772Z,35.85
2023-03-12T12:44:53.550Z,37.00
2023-03-12T12:47:39.994Z,36.55
2023-03-12T12:50:16.582Z,37.80
2023-03-12T12:52:48.681Z,39.13
2023-03-12T12:55:29.315Z,38.83
2023-03-12T12:58:17.492Z,39.80
2023-03-12T13:00:52.424Z,38.33
2023-03-12T13:03:25.278Z,37.15
2023-03-12T13:05:57.606Z,36.92
2023-03-12T13:08:46.447Z,38.00
2023-03-12T13:11:20.811Z,38.60
2023-03-12T13:14:15.612Z,36.50
2023-03-12T13:16:48.762Z,36.97
2023-03-12T13:19:18.784Z,37.47
2023-03-12T13:22:25.138Z,38.10
2023-03-12T13:25:13.792Z,34.95
2023-03-12T13:27:47.256Z,36.75
2023-03-12T13:30:35.393Z,35.60
2023-03-12T13:33:14.921Z,34.45
2023-03-12T13:35:50.002Z,35.63
2023-03-12T13:38:39.528Z,34.33
2023-03-12T13:41:10.624Z,35.88
2023-03-12T13:43:49.969Z,34.72
2023-03-12T13:46:41.631Z,34.33
2023-03-12T13:49:18.157Z,34.42
2023-03-12T13:51:57.945Z,32.95
2023-03-12T13:54:36.090Z,34.47
2023-03-12T13:57:14.212Z,35.97
2023-03-12T13:59:48.898Z,32.72
2023-03-12T14:02:34.707Z,35.78
2023-03-12T14:05:13.059Z,34.03
2023-03-12T14:08:09.206Z,35.17
2023-03-12T14:10:47.115Z,35.17
2023-03-12T14:14:06.499Z,32.55
2023-03-12T14:19:17.207Z,32.70
2023-03-12T14:21:50.063Z,31.90
2023-03-12T14:24:37.784Z,33.63
2023-03-12T14:27:14.283Z,33.63
2023-03-12T14:29:49.345Z,32.58
2023-03-12T14:32:36.897Z,32.60
2023-03-12T14:36:45.273Z,32.45
2023-03-12T14:39:59.928Z,31.90
2023-03-12T14:42:36.476Z,32.10
2023-03-12T14:45:17.438Z,32.90
2023-03-12T14:47:56.025Z,30.55
2023-03-12T14:50:39.932Z,30.45
2023-03-12T14:53:16.111Z,31.70
2023-03-12T14:55:46.406Z,31.55
2023-03-12T14:58:22.854Z,32.70
2023-03-12T15:01:09.603Z,33.60
2023-03-12T15:03:48.499Z,32.75
2023-03-12T15:06:35.223Z,32.28
2023-03-12T15:09:11.608Z,31.77
2023-03-12T15:11:43.090Z,32.30
2023-03-12T15:14:18.725Z,31.40
2023-03-12T15:16:49.157Z,30.73
2023-03-12T15:19:25.852Z,31.67
2023-03-12T15:21:56.826Z,32.30
2023-03-12T15:24:28.038Z,31.02
2023-03-12T15:26:58.255Z,32.13
2023-03-12T15:29:30.420Z,32.95
2023-03-12T15:32:02.567Z,31.67
2023-03-12T15:34:39.845Z,33.45
2023-03-12T15:37:35.091Z,33.95
2023-03-12T15:40:11.238Z,32.75
2023-03-12T15:42:46.223Z,34.35
2023-03-12T15:45:43.046Z,33.25
2023-03-12T15:48:36.389Z,33.20
2023-03-12T15:51:18.310Z,33.10
2023-03-12T15:53:48.687Z,33.00
2023-03-12T15:56:21.340Z,31.50
2023-03-12T15:59:05.440Z,32.70
2023-03-12T16:01:51.447Z,32.75
2023-03-12T16:04:23.132Z,32.45
2023-03-12T16:06:58.206Z,34.08
2023-03-12T16:09:31.905Z,32.72
2023-03-12T16:12:02.339Z,33.55
2023-03-12T16:14:36.864Z,33.00
2023-03-12T16:17:08.704Z,32.63
2023-03-12T16:19:39.031Z,32.47
2023-03-12T16:22:09.577Z,32.93
2023-03-12T16:24:42.765Z,34.45
2023-03-12T16:27:23.698Z,34.15
2023-03-12T16:30:02.185Z,33.30
2023-03-12T16:32:37.245Z,34.13
2023-03-12T16:35:21.193Z,34.75
2023-03-12T16:37:53.748Z,33.85
2023-03-12T16:40:33.450Z,35.30
2023-03-12T16:43:08.188Z,32.45
2023-03-12T16:45:39.878Z,32.35
2023-03-12T16:48:19.416Z,33.63
2023-03-12T16:50:55.708Z,32.85
2023-03-12T16:53:37.867Z,32.28
2023-03-12T16:56:09.309Z,35.03
2023-03-12T16:58:39.615Z,35.17
2023-03-12T17:01:15.806Z,35.55
2023-03-12T17:03:50.519Z,39.58
2023-03-12T17:06:35.740Z,39.50
2023-03-12T17:09:12.996Z,41.20
2023-03-12T17:11:43.548Z,40.72
2023-03-12T17:14:24.399Z,42.60
2023-03-12T17:16:56.239Z,45.60
2023-03-12T17:19:26.666Z,43.65
2023-03-12T17:21:59.897Z,40.67
2023-03-12T17:24:30.665Z,40.38
2023-03-12T17:27:03.197Z,40.35
2023-03-12T17:29:36.376Z,37.97
2023-03-12T17:32:06.707Z,40.08
2023-03-12T17:34:37.179Z,40.42
2023-03-12T17:37:07.709Z,38.77
2023-03-12T17:39:38.657Z,39.03
2023-03-12T17:42:09.072Z,37.17
2023-03-12T17:44:45.683Z,39.22
2023-03-12T17:47:18.800Z,37.85
2023-03-12T17:49:51.937Z,35.88
2023-03-12T17:52:22.353Z,38.50
2023-03-12T17:54:52.431Z,38.55
2023-03-12T17:57:22.418Z,39.42
2023-03-12T17:59:54.301Z,39.28
2023-03-12T18:02:25.046Z,38.90
2023-03-12T18:04:55.260Z,38.35
2023-03-12T18:07:25.525Z,37.13
2023-03-12T18:09:55.589Z,38.08
2023-03-12T18:12:25.670Z,36.28
2023-03-12T18:14:56.998Z,38.83
2023-03-12T18:17:27.307Z,38.33
2023-03-12T18:19:57.376Z,38.05
2023-03-12T18:22:28.699Z,39.47
2023-03-12T18:24:58.873Z,36.30
2023-03-12T18:27:28.892Z,38.55
2023-03-12T18:29:58.912Z,37.50
2023-03-12T18:32:28.912Z,38.05
2023-03-12T18:35:00.002Z,38.30
2023-03-12T18:37:30.391Z,37.85
2023-03-12T18:40:00.906Z,37.30
2023-03-12T18:42:31.076Z,38.15
2023-03-12T18:45:01.301Z,37.03
2023-03-12T18:47:31.597Z,39.25
2023-03-12T18:50:01.818Z,39.13
2023-03-12T18:53:02.601Z,37.28
2023-03-12T18:55:34.496Z,38.77
2023-03-12T18:58:04.411Z,39.33
2023-03-12T19:00:34.542Z,38.97
2023-03-12T19:03:04.593Z,39.20
2023-03-12T19:05:34.821Z,37.90
2023-03-12T19:08:08.338Z,37.63
2023-03-12T19:10:38.958Z,38.88
2023-03-12T19:13:09.345Z,38.20
2023-03-12T19:15:41.400Z,38.13
2023-03-12T19:18:11.837Z,40.08
2023-03-12T19:20:41.840Z,38.83
2023-03-12T19:23:11.803Z,38.63
2023-03-12T19:25:41.750Z,38.10
2023-03-12T19:28:11.847Z,39.97
2023-03-12T19:30:41.785Z,39.38
2023-03-12T19:33:11.783Z,38.63
2023-03-12T19:35:43.173Z,39.55
2023-03-12T19:38:13.346Z,39.20
2023-03-12T19:40:43.243Z,39.03
2023-03-12T19:43:13.055Z,39.80
2023-03-12T19:45:42.979Z,40.67
2023-03-12T19:48:14.909Z,41.38
2023-03-12T19:50:47.167Z,42.15
2023-03-12T19:53:20.001Z,42.05
2023-03-12T19:55:53.244Z,45.58
2023-03-12T19:58:24.236Z,45.63
2023-03-12T20:00:54.420Z,45.78
2023-03-12T20:03:26.724Z,46.10
2023-03-12T20:05:56.880Z,43.88
2023-03-12T20:08:32.453Z,46.00
2023-03-12T20:11:11.771Z,46.28
2023-03-12T20:13:41.736Z,46.50
2023-03-12T20:16:13.794Z,49.05
2023-03-12T20:18:44.279Z,47.05
2023-03-12T20:21:14.320Z,49.53
2023-03-12T20:23:44.128Z,47.03
2023-03-12T20:26:14.187Z,49.35
2023-03-12T20:28:44.594Z,47.78
2023-03-12T20:31:17.896Z,47.20
2023-03-12T20:33:51.240Z,51.00
2023-03-12T20:36:21.381Z,48.90
2023-03-12T20:38:51.977Z,49.83
2023-03-12T20:41:22.249Z,50.93
2023-03-12T20:43:57.022Z,50.53
2023-03-12T20:46:27.696Z,50.47
2023-03-12T20:48:57.871Z,51.30
2023-03-12T20:51:27.765Z,50.88
2023-03-12T20:53:58.282Z,47.78
2023-03-12T20:56:28.490Z,51.20
2023-03-12T20:58:59.373Z,47.90
2023-03-12T21:01:29.903Z,49.28
2023-03-12T21:06:47.191Z,48.55
2023-03-12T21:09:17.320Z,41.50
2023-03-12T21:11:51.756Z,39.75
2023-03-12T21:14:22.465Z,39.90
2023-03-12T21:16:52.658Z,42.47
2023-03-12T21:19:26.168Z,41.88
2023-03-12T21:21:56.151Z,43.38
2023-03-12T21:24:26.175Z,39.90
2023-03-12T21:26:56.182Z,35.40
2023-03-12T21:29:27.635Z,36.97
2023-03-12T21:32:00.020Z,36.65
2023-03-12T21:34:32.658Z,37.30
2023-03-12T21:37:02.893Z,36.65
2023-03-12T21:39:32.833Z,35.33
2023-03-12T21:42:02.952Z,34.28
2023-03-12T21:44:33.043Z,33.90
2023-03-12T21:47:03.307Z,35.97
2023-03-12T21:49:35.771Z,36.45
2023-03-12T21:52:07.385Z,37.55
2023-03-12T21:54:38.998Z,36.13
2023-03-12T21:57:09.128Z,34.25
2023-03-12T21:59:39.256Z,35.40
2023-03-12T22:02:09.882Z,35.85
2023-03-12T22:04:40.080Z,38.93
2023-03-12T22:07:10.848Z,35.28
2023-03-12T22:09:41.195Z,39.17
2023-03-12T22:12:11.681Z,39.13
2023-03-12T22:14:41.669Z,38.25
2023-03-12T22:17:11.564Z,39.70
2023-03-12T22:19:42.125Z,38.97
2023-03-12T22:22:12.421Z,40.47
2023-03-12T22:24:42.575Z,37.53
2023-03-12T22:27:12.473Z,39.75
2023-03-12T22:29:42.495Z,36.75
2023-03-12T22:32:12.431Z,38.20
2023-03-12T22:34:42.990Z,37.80
2023-03-12T22:37:13.039Z,39.33
2023-03-12T22:39:43.187Z,39.03
2023-03-12T22:42:14.576Z,39.60
2023-03-12T22:44:45.054Z,38.13
2023-03-12T22:47:16.605Z,39.53
2023-03-12T22:49:46.706Z,44.30
2023-03-12T22:52:16.617Z,41.90
2023-03-12T22:54:46.429Z,41.05
2023-03-12T22:58:06.177Z,60.47
2023-03-12T23:00:36.229Z,99.35
2023-03-12T23:03:06.169Z,39.10
2023-03-12T23:05:37.508Z,46.03
2023-03-12T23:12:09.417Z,42.05
2023-03-12T23:14:39.674Z,39.23
2023-03-12T23:17:10.992Z,38.78
2023-03-12T23:19:40.993Z,37.58
2023-03-12T23:22:11.486Z,36.65
2023-03-12T23:24:41.570Z,39.13
2023-03-12T23:27:11.484Z,34.85
2023-03-12T23:29:42.391Z,32.90
2023-03-12T23:32:12.548Z,33.88
2023-03-12T23:34:43.581Z,36.58
2023-03-12T23:37:14.401Z,37.95
2023-03-12T23:39:54.117Z,34.25
2023-03-12T23:42:24.977Z,36.63
2023-03-12T23:44:55.031Z,33.28
2023-03-12T23:47:24.899Z,35.13
2023-03-12T23:49:54.814Z,34.72
2023-03-12T23:52:27.958Z,35.80
2023-03-12T23:54:57.942Z,36.17
2023-03-12T23:57:27.849Z,32.72
2023-03-12T23:59:57.825Z,37.90
